Time;durP1;ratioP1;P1;durP2;ratioP2;P2;SDS_P1;SDS_P2;PMS_P1;PMS_P2;Temp;Humidity;BMP_temperature;BMP_pressure;BME280_temperature;BME280_humidity;BME280_pressure;Samples;Min_cycle;Max_cycle;Signal;HPM_P1;HPM_P2
2022/02/28 00:01:12;;;;;;;12.3;7.4;;;;;;;-1.58;77.88477;947.8206;;;;
2022/02/28 00:03:37;;;;;;;11.8;8.7;;;;;;;-1.56;77.87695;947.8486;;;;
2022/02/28 00:06:02;;;;;;;14.4;8.7;;;;;;;-1.45;77.6416;947.7833;;;;
2022/02/28 00:08:34;;;;;;;10.3;7.5;;;;;;;-1.42;77.16016;947.7012;;;;
2022/02/28 00:11:21;;;;;;;13.5;8.1;;;;;;;-1.41;77.22656;947.6992;;;;
2022/02/28 00:13:51;;;;;;;11.9;8.5;;;;;;;-1.52;78.24023;947.6428;;;;
2022/02/28 00:16:41;;;;;;;13.3;8.9;;;;;;;-1.55;77.67871;947.7792;;;;
2022/02/28 00:19:19;;;;;;;13.6;9.1;;;;;;;-1.51;77.59668;947.7671;;;;
2022/02/28 00:21:56;;;;;;;13.5;8.3;;;;;;;-1.55;77.39063;947.863;;;;
2022/02/28 00:24:34;;;;;;;13.6;9.1;;;;;;;-1.55;77.25684;947.8115;;;;
2022/02/28 00:27:10;;;;;;;12.2;8.6;;;;;;;-1.67;77.66797;947.7849;;;;
2022/02/28 00:29:41;;;;;;;13.6;8.8;;;;;;;-1.73;78.06543;947.7875;;;;
2022/02/28 00:32:06;;;;;;;11.1;8;;;;;;;-1.75;78.29688;947.8566;;;;
2022/02/28 00:34:47;;;;;;;11;7.6;;;;;;;-1.77;78.2041;947.8577;;;;
2022/02/28 00:37:20;;;;;;;14.4;8.9;;;;;;;-1.77;78.44727;947.8808;;;;
2022/02/28 00:39:46;;;;;;;12.8;8.6;;;;;;;-1.78;78.63379;947.8067;;;;
2022/02/28 00:42:19;;;;;;;11.8;7.8;;;;;;;-1.8;78.63184;947.8337;;;;
2022/02/28 00:44:48;;;;;;;11.2;7.4;;;;;;;-1.8;78.46387;947.8815;;;;
2022/02/28 00:47:14;;;;;;;10.7;6.9;;;;;;;-1.9;78.82227;947.7928;;;;
2022/02/28 00:49:40;;;;;;;9.2;6.5;;;;;;;-1.91;78.78711;947.8089;;;;
2022/02/28 00:52:05;;;;;;;11;7;;;;;;;-1.95;78.9248;947.7971;;;;
2022/02/28 00:54:30;;;;;;;11.3;7.6;;;;;;;-1.84;78.85449;947.7522;;;;
2022/02/28 00:57:01;;;;;;;10;7;;;;;;;-1.74;78.39648;947.782;;;;
2022/02/28 00:59:26;;;;;;;9.6;6.4;;;;;;;-1.71;77.85059;947.8464;;;;
2022/02/28 01:01:54;;;;;;;11.6;7.6;;;;;;;-1.76;78.01758;947.8293;;;;
2022/02/28 01:04:19;;;;;;;12.2;7.8;;;;;;;-1.89;78.22559;947.8176;;;;
2022/02/28 01:06:47;;;;;;;11.4;7.6;;;;;;;-1.84;78.04492;947.7849;;;;
2022/02/28 01:09:12;;;;;;;11.4;7.3;;;;;;;-1.92;78.20898;947.6699;;;;
2022/02/28 01:11:40;;;;;;;11.2;7.5;;;;;;;-1.91;77.9541;947.6644;;;;
2022/02/28 01:14:05;;;;;;;10.9;7.8;;;;;;;-1.94;77.67383;947.7032;;;;
2022/02/28 01:16:35;;;;;;;11.5;7.7;;;;;;;-1.89;77.62598;947.7214;;;;
2022/02/28 01:19:04;;;;;;;10.7;6.8;;;;;;;-1.96;77.85742;947.639;;;;
2022/02/28 01:21:29;;;;;;;11;6.7;;;;;;;-2.2;78.76465;947.7679;;;;
2022/02/28 01:24:00;;;;;;;7.4;5.7;;;;;;;-2.28;78.87305;947.7245;;;;
2022/02/28 01:26:25;;;;;;;9.7;6.3;;;;;;;-2.34;79.60547;947.7014;;;;
2022/02/28 01:28:50;;;;;;;9.6;6.4;;;;;;;-2.42;80.12012;947.7322;;;;
2022/02/28 01:31:21;;;;;;;9;6.5;;;;;;;-2.41;80.15625;947.7833;;;;
2022/02/28 01:33:52;;;;;;;7.8;6;;;;;;;-2.42;80.36328;947.7503;;;;
2022/02/28 01:36:21;;;;;;;10.9;6.3;;;;;;;-2.39;80.30371;947.7445;;;;
2022/02/28 01:38:46;;;;;;;9.5;6.2;;;;;;;-2.41;80.17871;947.7277;;;;
2022/02/28 01:41:14;;;;;;;11.7;6.7;;;;;;;-2.4;80.15625;947.6604;;;;
2022/02/28 01:43:39;;;;;;;9;6;;;;;;;-2.46;80.35645;947.66;;;;
2022/02/28 01:46:08;;;;;;;8.5;6;;;;;;;-2.49;80.45117;947.7299;;;;
2022/02/28 01:48:33;;;;;;;20.1;7.3;;;;;;;-2.43;80.17285;947.7019;;;;
2022/02/28 01:51:00;;;;;;;7.9;5.7;;;;;;;-2.48;80.17383;947.6799;;;;
2022/02/28 01:53:25;;;;;;;8.2;6;;;;;;;-2.5;80.11523;947.7095;;;;
2022/02/28 01:55:51;;;;;;;9.1;6.1;;;;;;;-2.47;79.79199;947.6232;;;;
2022/02/28 01:58:17;;;;;;;11.4;6.8;;;;;;;-2.52;79.70215;947.7252;;;;
2022/02/28 02:00:42;;;;;;;9.5;6;;;;;;;-2.46;79.49219;947.7597;;;;
2022/02/28 02:03:09;;;;;;;9.1;6.2;;;;;;;-2.36;78.87988;947.7239;;;;
2022/02/28 02:05:34;;;;;;;9;6.2;;;;;;;-2.39;78.8623;947.6661;;;;
2022/02/28 02:07:59;;;;;;;9.1;6.4;;;;;;;-2.47;79.08105;947.6765;;;;
2022/02/28 02:10:27;;;;;;;9.5;6.9;;;;;;;-2.47;79.33594;947.6453;;;;
2022/02/28 02:12:52;;;;;;;10.2;6.4;;;;;;;-2.39;78.8418;947.6609;;;;
2022/02/28 02:16:03;;;;;;;9.9;6.5;;;;;;;-2.39;78.15527;947.6541;;;;
2022/02/28 02:18:28;;;;;;;10;6.2;;;;;;;-2.57;79.06055;947.5303;;;;
2022/02/28 02:20:58;;;;;;;9;6.1;;;;;;;-2.62;79.72754;947.6208;;;;
2022/02/28 02:23:24;;;;;;;8.7;5.7;;;;;;;-2.67;79.94238;947.6839;;;;
2022/02/28 02:25:48;;;;;;;8.2;6;;;;;;;-2.78;80.53711;947.6606;;;;
2022/02/28 02:28:15;;;;;;;8.9;5.9;;;;;;;-2.75;80.51172;947.663;;;;
2022/02/28 02:30:41;;;;;;;7.1;5.4;;;;;;;-2.67;80.06055;947.5578;;;;
2022/02/28 02:33:05;;;;;;;6.6;5.2;;;;;;;-2.6;79.72168;947.6922;;;;
2022/02/28 02:35:35;;;;;;;6.9;5.2;;;;;;;-2.62;79.40625;947.6638;;;;
2022/02/28 02:38:00;;;;;;;7.5;5.3;;;;;;;-2.61;79.06543;947.5408;;;;
2022/02/28 02:40:28;;;;;;;8.7;5.8;;;;;;;-2.66;78.93457;947.6225;;;;
2022/02/28 02:42:54;;;;;;;8.3;5.9;;;;;;;-2.73;79.16504;947.6894;;;;
2022/02/28 02:45:20;;;;;;;8.1;5.8;;;;;;;-2.71;79.17871;947.7173;;;;
2022/02/28 02:47:45;;;;;;;12.1;6.5;;;;;;;-2.72;79.06641;947.6526;;;;
2022/02/28 02:50:13;;;;;;;8.5;5.9;;;;;;;-2.82;79.28027;947.754;;;;
2022/02/28 02:52:38;;;;;;;9;5.8;;;;;;;-2.93;79.92383;947.6891;;;;
2022/02/28 02:55:04;;;;;;;8.7;5.4;;;;;;;-2.79;79.70801;947.6204;;;;
2022/02/28 02:57:29;;;;;;;7.2;5.2;;;;;;;-2.84;79.53125;947.7656;;;;
2022/02/28 02:59:56;;;;;;;7.8;5.7;;;;;;;-2.84;79.70801;947.7566;;;;
2022/02/28 03:02:21;;;;;;;22.1;11.3;;;;;;;-2.88;79.84375;947.6597;;;;
2022/02/28 03:04:48;;;;;;;34;15.2;;;;;;;-2.88;79.92285;947.7125;;;;
2022/02/28 03:07:13;;;;;;;20.1;11;;;;;;;-2.99;80.45313;947.6937;;;;
2022/02/28 03:09:38;;;;;;;12.1;6.7;;;;;;;-3.09;80.96484;947.5742;;;;
2022/02/28 03:12:04;;;;;;;8.1;5.3;;;;;;;-3.03;80.96582;947.6951;;;;
2022/02/28 03:14:29;;;;;;;6.8;4.9;;;;;;;-3.1;80.74414;947.7706;;;;
2022/02/28 03:16:58;;;;;;;6.9;4.4;;;;;;;-3.14;81.06738;947.8174;;;;
2022/02/28 03:19:24;;;;;;;7.9;4.4;;;;;;;-3.1;81.00781;947.8528;;;;
2022/02/28 03:21:49;;;;;;;6.9;4.8;;;;;;;-3.09;80.74609;947.8664;;;;
2022/02/28 03:24:18;;;;;;;6.5;4.4;;;;;;;-3.04;80.4541;947.9125;;;;
2022/02/28 03:26:43;;;;;;;7.9;4.5;;;;;;;-2.89;79.75293;947.9052;;;;
2022/02/28 03:29:10;;;;;;;7.3;4.8;;;;;;;-2.82;78.09766;947.9305;;;;
2022/02/28 03:31:35;;;;;;;5.1;3.9;;;;;;;-2.72;76.71094;947.9192;;;;
2022/02/28 03:34:03;;;;;;;5.4;3.8;;;;;;;-2.86;77.60156;947.909;;;;
2022/02/28 03:36:28;;;;;;;7.2;4;;;;;;;-2.85;78.03418;947.9472;;;;
2022/02/28 03:38:56;;;;;;;6.2;3.9;;;;;;;-2.83;77.85156;947.9771;;;;
2022/02/28 03:41:21;;;;;;;5.3;3.7;;;;;;;-3;78.30566;948.0016;;;;
2022/02/28 03:43:48;;;;;;;6.7;4.4;;;;;;;-2.95;78.07324;948.0075;;;;
2022/02/28 03:46:13;;;;;;;7.6;4.2;;;;;;;-2.92;78.50879;948.0419;;;;
2022/02/28 03:48:39;;;;;;;7;4.2;;;;;;;-2.88;76.52441;948.0316;;;;
2022/02/28 03:51:04;;;;;;;6.2;4.1;;;;;;;-2.69;75.98535;948.055;;;;
2022/02/28 03:53:31;;;;;;;6.6;4.4;;;;;;;-2.66;75.81348;948.0563;;;;
2022/02/28 03:56:03;;;;;;;8.4;4.2;;;;;;;-2.56;75.25488;948.1067;;;;
2022/02/28 03:58:30;;;;;;;6.5;4.2;;;;;;;-2.54;75.08105;948.0823;;;;
2022/02/28 04:02:31;;;;;;;6.3;4.1;;;;;;;-2.46;73.77832;948.1844;;;;
2022/02/28 04:04:56;;;;;;;6.2;3.7;;;;;;;-2.44;73.73828;948.2764;;;;
2022/02/28 04:07:25;;;;;;;5.9;3.9;;;;;;;-2.35;73.97461;948.3179;;;;
2022/02/28 04:09:50;;;;;;;6.6;4;;;;;;;-2.43;74.37012;948.2805;;;;
2022/02/28 04:12:19;;;;;;;5.8;4;;;;;;;-2.42;73.78613;948.2794;;;;
2022/02/28 04:14:45;;;;;;;6.5;4;;;;;;;-2.37;72.6748;948.2269;;;;
2022/02/28 04:17:13;;;;;;;7.1;6.4;;;;;;;-2.39;71.79883;948.3194;;;;
2022/02/28 04:19:42;;;;;;;8;6.8;;;;;;;-2.41;71.62793;948.3359;;;;
2022/02/28 04:22:07;;;;;;;5.7;4.2;;;;;;;-2.4;71.35059;948.2109;;;;
2022/02/28 04:24:33;;;;;;;5.1;4.2;;;;;;;-2.37;71.37891;948.3033;;;;
2022/02/28 04:27:02;;;;;;;5.6;3.9;;;;;;;-2.47;71.31934;948.3031;;;;
2022/02/28 04:29:27;;;;;;;5.8;4;;;;;;;-2.59;71.49707;948.3561;;;;
2022/02/28 04:31:53;;;;;;;5.7;3.8;;;;;;;-2.54;71.50684;948.3344;;;;
2022/02/28 04:34:23;;;;;;;5.1;3.5;;;;;;;-2.44;70.79102;948.345;;;;
2022/02/28 04:36:55;;;;;;;6.7;3.9;;;;;;;-2.43;70.61523;948.2776;;;;
2022/02/28 04:39:25;;;;;;;7.1;4;;;;;;;-2.46;70.91016;948.3086;;;;
2022/02/28 04:41:50;;;;;;;6;3.7;;;;;;;-2.47;70.58691;948.3408;;;;
2022/02/28 04:44:20;;;;;;;4.6;3.7;;;;;;;-2.52;70.98926;948.2439;;;;
2022/02/28 04:47:39;;;;;;;6.3;3.8;;;;;;;-2.52;71.34375;948.264;;;;
2022/02/28 04:50:12;;;;;;;6.7;4.5;;;;;;;-2.48;71.46094;948.2775;;;;
2022/02/28 04:52:37;;;;;;;13;4.7;;;;;;;-2.47;71.76074;948.2678;;;;
2022/02/28 04:55:08;;;;;;;9.8;4.9;;;;;;;-2.42;71.41406;948.3155;;;;
2022/02/28 04:57:39;;;;;;;7.9;5.2;;;;;;;-2.53;72.07129;948.1866;;;;
2022/02/28 05:00:04;;;;;;;7.2;4.6;;;;;;;-2.84;74.14258;948.2581;;;;
2022/02/28 05:02:29;;;;;;;5.5;4.2;;;;;;;-3.03;75.61328;948.2751;;;;
2022/02/28 05:04:58;;;;;;;6.4;4.1;;;;;;;-3.24;77.02441;948.2751;;;;
2022/02/28 05:07:23;;;;;;;8.5;4.9;;;;;;;-3.37;78.34766;948.293;;;;
2022/02/28 05:09:51;;;;;;;11.5;4.7;;;;;;;-3.49;79.10938;948.3954;;;;
2022/02/28 05:12:16;;;;;;;9.3;4.8;;;;;;;-3.46;79.13672;948.4077;;;;
2022/02/28 05:14:46;;;;;;;7.1;4.7;;;;;;;-3.46;79.03906;948.4216;;;;
2022/02/28 05:17:17;;;;;;;7.4;4.8;;;;;;;-3.47;78.90332;948.3989;;;;
2022/02/28 05:19:47;;;;;;;8.1;5.4;;;;;;;-3.55;78.99805;948.4866;;;;
2022/02/28 05:22:12;;;;;;;9.1;5.6;;;;;;;-3.68;79.74707;948.5023;;;;
2022/02/28 05:24:41;;;;;;;7.3;5;;;;;;;-3.73;80.21191;948.474;;;;
2022/02/28 05:27:09;;;;;;;6.3;4.6;;;;;;;-3.7;80.23926;948.5039;;;;
2022/02/28 05:29:31;;;;;;;6.7;4.5;;;;;;;-3.67;80.09277;948.5201;;;;
2022/02/28 05:31:56;;;;;;;9.7;5;;;;;;;-3.77;80.20508;948.4978;;;;
2022/02/28 05:34:24;;;;;;;6.8;4.5;;;;;;;-3.89;80.85547;948.5277;;;;
2022/02/28 05:36:49;;;;;;;8.4;5.6;;;;;;;-3.99;81.37695;948.5274;;;;
2022/02/28 05:39:18;;;;;;;9.3;5.1;;;;;;;-3.85;81.03027;948.5283;;;;
2022/02/28 05:41:50;;;;;;;10.2;5.6;;;;;;;-3.76;80.6377;948.5323;;;;
2022/02/28 05:44:17;;;;;;;8.5;5.7;;;;;;;-3.78;80.40234;948.5686;;;;
2022/02/28 05:46:43;;;;;;;10.7;6.1;;;;;;;-3.68;80.0127;948.5272;;;;
2022/02/28 05:49:14;;;;;;;9.2;5.9;;;;;;;-3.6;79.47559;948.5033;;;;
2022/02/28 05:51:38;;;;;;;10.6;5.4;;;;;;;-3.63;79.58105;948.5784;;;;
2022/02/28 05:54:06;;;;;;;8.5;5.4;;;;;;;-3.74;79.67969;948.5754;;;;
2022/02/28 05:56:32;;;;;;;7.1;4.7;;;;;;;-3.79;80.23438;948.6211;;;;
2022/02/28 05:59:00;;;;;;;6.1;4.2;;;;;;;-3.9;80.57617;948.6358;;;;
2022/02/28 06:01:25;;;;;;;12.8;4.7;;;;;;;-3.91;80.66309;948.639;;;;
2022/02/28 06:03:52;;;;;;;6.4;4.3;;;;;;;-3.89;80.47852;948.5647;;;;
2022/02/28 06:06:17;;;;;;;4.8;3.5;;;;;;;-3.9;80.44531;948.4719;;;;
2022/02/28 06:08:44;;;;;;;6.7;4.1;;;;;;;-3.88;80.16016;948.6063;;;;
2022/02/28 06:11:09;;;;;;;5.7;3.9;;;;;;;-3.96;80.2793;948.5413;;;;
2022/02/28 06:13:37;;;;;;;7.3;3.9;;;;;;;-3.88;79.35645;948.4667;;;;
2022/02/28 06:16:13;;;;;;;7;4.1;;;;;;;-3.9;79.69531;948.4455;;;;
2022/02/28 06:18:45;;;;;;;5.8;3.7;;;;;;;-3.9;79.75977;948.5457;;;;
2022/02/28 06:21:10;;;;;;;6.3;3.2;;;;;;;-3.85;79.37207;948.5584;;;;
2022/02/28 06:23:42;;;;;;;9.2;4.2;;;;;;;-3.85;79.29492;948.5611;;;;
2022/02/28 06:26:06;;;;;;;8;4.1;;;;;;;-3.78;79.29785;948.5363;;;;
2022/02/28 06:28:35;;;;;;;7.5;4.6;;;;;;;-3.79;79.1748;948.603;;;;
2022/02/28 06:31:09;;;;;;;9.2;5.5;;;;;;;-3.62;79.66016;948.5714;;;;
2022/02/28 06:33:33;;;;;;;12.7;6.3;;;;;;;-3.52;79.45605;948.545;;;;
2022/02/28 06:36:01;;;;;;;10.5;4.8;;;;;;;-2.99;77.96484;948.5627;;;;
2022/02/28 06:38:28;;;;;;;6.3;3.5;;;;;;;-2.48;75.08203;948.5338;;;;
2022/02/28 06:40:54;;;;;;;6.8;4.1;;;;;;;-2.14;72.94727;948.5309;;;;
2022/02/28 06:43:20;;;;;;;6.5;4;;;;;;;-1.71;71.40234;948.5103;;;;
2022/02/28 06:45:47;;;;;;;9;4.6;;;;;;;-1.11;69.09473;948.5255;;;;
2022/02/28 06:48:12;;;;;;;9.4;5.3;;;;;;;-1.01;67.37695;948.4691;;;;
2022/02/28 06:50:40;;;;;;;11.3;5.1;;;;;;;-0.93;66.80078;948.4946;;;;
2022/02/28 06:53:05;;;;;;;9.2;4.2;;;;;;;-0.62;65.01465;948.4534;;;;
2022/02/28 06:55:33;;;;;;;5.1;2.9;;;;;;;0.05;61.38379;948.5467;;;;
2022/02/28 06:57:58;;;;;;;5.1;3.2;;;;;;;-0.04;61.59473;948.5383;;;;
2022/02/28 07:00:25;;;;;;;8.5;4.3;;;;;;;-0.08;62.22461;948.5469;;;;
2022/02/28 07:02:51;;;;;;;6.2;3.5;;;;;;;-0.43;61.82813;948.53;;;;
2022/02/28 07:05:19;;;;;;;9;4.4;;;;;;;-0.22;63.35156;948.5054;;;;
2022/02/28 07:07:44;;;;;;;11;4.5;;;;;;;0.51;61.48633;948.4792;;;;
2022/02/28 07:10:14;;;;;;;8.2;3.7;;;;;;;1.72;57.24414;948.5494;;;;
2022/02/28 07:12:43;;;;;;;13;4.9;;;;;;;1.72;56.53906;948.52;;;;
2022/02/28 07:15:09;;;;;;;6.5;3.6;;;;;;;2.17;57.23828;948.5863;;;;
2022/02/28 07:17:34;;;;;;;6.2;2.8;;;;;;;3.32;52.60938;948.553;;;;
2022/02/28 07:20:03;;;;;;;5.4;2.9;;;;;;;4.29;50.1084;948.5016;;;;
2022/02/28 07:22:28;;;;;;;6.8;2.4;;;;;;;4.08;49.17188;948.561;;;;
2022/02/28 07:24:57;;;;;;;4;2.4;;;;;;;4.89;46.71875;948.5936;;;;
2022/02/28 07:27:22;;;;;;;4.6;2.5;;;;;;;4.56;45.01758;948.6359;;;;
2022/02/28 07:29:53;;;;;;;5.8;2.6;;;;;;;5.33;45.14355;948.6277;;;;
2022/02/28 07:32:18;;;;;;;5;2.8;;;;;;;5.74;43.58301;948.5823;;;;
2022/02/28 07:34:44;;;;;;;5.1;3.2;;;;;;;5.82;43.7832;948.6666;;;;
2022/02/28 07:37:10;;;;;;;6.9;2.9;;;;;;;5.84;43.33301;948.6858;;;;
2022/02/28 07:40:11;;;;;;;5.9;2.6;;;;;;;5.25;43.07031;948.5503;;;;
2022/02/28 07:42:36;;;;;;;4.2;2.4;;;;;;;5.75;42.31934;948.665;;;;
2022/02/28 07:45:01;;;;;;;4.2;2.7;;;;;;;6.31;42.25;948.6586;;;;
2022/02/28 07:47:26;;;;;;;4.2;2.5;;;;;;;6.2;40.56641;948.6839;;;;
2022/02/28 07:49:56;;;;;;;5.3;2.6;;;;;;;7.31;39.69727;948.6591;;;;
2022/02/28 07:52:21;;;;;;;4.9;2.6;;;;;;;7.75;39.02344;948.6944;;;;
2022/02/28 07:54:51;;;;;;;3.9;2.9;;;;;;;8.12;36.57031;948.6844;;;;
2022/02/28 07:57:16;;;;;;;4.2;2.7;;;;;;;6.96;40.37793;948.7715;;;;
2022/02/28 07:59:44;;;;;;;4.6;3;;;;;;;7.32;40.66211;948.6898;;;;
2022/02/28 08:02:09;;;;;;;7;3.2;;;;;;;8.46;38.58789;948.6653;;;;
2022/02/28 08:04:41;;;;;;;5.6;2.9;;;;;;;9.65;35.35547;948.5823;;;;
2022/02/28 08:07:06;;;;;;;4.2;2.9;;;;;;;10.25;35.45117;948.5648;;;;
2022/02/28 08:09:35;;;;;;;5.9;3.5;;;;;;;11.42;31.79395;948.5391;;;;
2022/02/28 08:12:00;;;;;;;4.2;3.2;;;;;;;12.29;30.15039;948.5197;;;;
2022/02/28 08:14:26;;;;;;;5.2;3.3;;;;;;;12.7;29.94922;948.5158;;;;
2022/02/28 08:16:54;;;;;;;4.8;3.4;;;;;;;13.35;29.08594;948.4293;;;;
2022/02/28 08:19:23;;;;;;;5.7;3.4;;;;;;;13.57;28.97363;948.4623;;;;
2022/02/28 08:21:48;;;;;;;4.4;3.3;;;;;;;14.27;28.08887;948.4094;;;;
2022/02/28 08:24:14;;;;;;;6.6;3.5;;;;;;;14.04;29.33887;948.4215;;;;
2022/02/28 08:26:39;;;;;;;5.8;3.4;;;;;;;13.39;30.39844;948.4683;;;;
2022/02/28 08:29:08;;;;;;;6.1;3.6;;;;;;;15.27;27.66797;948.5097;;;;
2022/02/28 08:31:33;;;;;;;8.2;3.7;;;;;;;14.94;27.96973;948.476;;;;
2022/02/28 08:34:02;;;;;;;8.1;3.7;;;;;;;14.63;29.17188;948.4966;;;;
2022/02/28 08:36:31;;;;;;;6.6;3.6;;;;;;;15.21;28.51855;948.4617;;;;
2022/02/28 08:38:56;;;;;;;7;3.4;;;;;;;17.02;25.56543;948.4395;;;;
2022/02/28 08:41:24;;;;;;;4.9;2.9;;;;;;;17.88;24.15137;948.4227;;;;
2022/02/28 08:43:49;;;;;;;7.2;3.3;;;;;;;17.17;24.57715;948.4501;;;;
2022/02/28 08:46:18;;;;;;;7.6;3.3;;;;;;;17.8;23.46289;948.4056;;;;
2022/02/28 08:48:43;;;;;;;4.5;3.1;;;;;;;16.09;25.67188;948.4247;;;;
2022/02/28 08:51:10;;;;;;;5.9;3.3;;;;;;;15;27.00488;948.4451;;;;
2022/02/28 08:53:35;;;;;;;7;3;;;;;;;16.16;24.90137;948.483;;;;
2022/02/28 08:56:03;;;;;;;5.1;3.1;;;;;;;17.63;23.74316;948.4105;;;;
2022/02/28 08:58:28;;;;;;;5.2;3;;;;;;;16.73;24.54004;948.4417;;;;
2022/02/28 09:00:56;;;;;;;2.7;2.3;;;;;;;17.77;23.83203;948.4444;;;;
2022/02/28 09:03:21;;;;;;;4.5;2.9;;;;;;;19.44;21.44141;948.4104;;;;
2022/02/28 09:05:50;;;;;;;4;2.5;;;;;;;19.63;21.72949;948.4409;;;;
2022/02/28 09:09:06;;;;;;;7;2.6;;;;;;;20.53;20.10352;948.4285;;;;
2022/02/28 09:11:34;;;;;;;6.7;3.1;;;;;;;19.06;21.66699;948.4363;;;;
2022/02/28 09:13:59;;;;;;;6.2;2.8;;;;;;;18.03;23.91504;948.4838;;;;
2022/02/28 09:16:32;;;;;;;9;3.1;;;;;;;17.58;23.72852;948.465;;;;
2022/02/28 09:18:57;;;;;;;6.3;2.5;;;;;;;17.83;22.41895;948.4938;;;;
2022/02/28 09:21:26;;;;;;;5.7;2.6;;;;;;;18.57;22.22363;948.5452;;;;
2022/02/28 09:23:49;;;;;;;7.1;2.5;;;;;;;17.77;22.86816;948.5758;;;;
2022/02/28 09:26:20;;;;;;;4.9;2.7;;;;;;;18.1;22.52539;948.5465;;;;
2022/02/28 09:28:45;;;;;;;3.5;2.1;;;;;;;17.53;23.04199;948.4562;;;;
2022/02/28 09:31:13;;;;;;;3.1;1.8;;;;;;;16.44;23.92188;948.4927;;;;
2022/02/28 09:33:38;;;;;;;3.8;2.3;;;;;;;16.5;23.76367;948.4791;;;;
2022/02/28 09:36:07;;;;;;;3.4;1.9;;;;;;;17.01;23.02637;948.4456;;;;
2022/02/28 09:38:30;;;;;;;3.2;2.1;;;;;;;16.66;23.56348;948.4078;;;;
2022/02/28 09:41:00;;;;;;;5.1;2.4;;;;;;;16.5;23.6709;948.3778;;;;
2022/02/28 09:43:28;;;;;;;2.7;2;;;;;;;16.05;24.59473;948.3691;;;;
2022/02/28 09:45:53;;;;;;;4.8;2.3;;;;;;;16.35;24.13672;948.4791;;;;
2022/02/28 09:49:12;;;;;;;3.4;1.9;;;;;;;16.9;23.63477;948.4375;;;;
2022/02/28 09:51:41;;;;;;;3.9;2.1;;;;;;;16.9;22.73047;948.3997;;;;
2022/02/28 10:00:31;;;;;;;4.6;2;;;;;;;16.07;23.24316;948.3789;;;;
2022/02/28 10:03:00;;;;;;;2.7;1.9;;;;;;;15.9;23.56836;948.344;;;;
2022/02/28 10:05:25;;;;;;;3.2;2;;;;;;;14.77;26.02148;948.4252;;;;
2022/02/28 10:07:53;;;;;;;4.2;2;;;;;;;14.16;26.08887;948.399;;;;
2022/02/28 10:10:18;;;;;;;3.1;2.2;;;;;;;13.79;26.84961;948.4066;;;;
2022/02/28 10:12:46;;;;;;;4.4;2.5;;;;;;;13.79;27.02148;948.3296;;;;
2022/02/28 10:15:12;;;;;;;4.3;2.4;;;;;;;14.1;27.31738;948.4086;;;;
2022/02/28 10:17:40;;;;;;;5.4;2.7;;;;;;;13.72;27.28223;948.3639;;;;
2022/02/28 10:20:05;;;;;;;4.7;2.3;;;;;;;13.91;26.76465;948.3979;;;;
2022/02/28 10:22:33;;;;;;;3.9;2.4;;;;;;;14.05;26.87598;948.3599;;;;
2022/02/28 10:24:58;;;;;;;4.3;2.4;;;;;;;13.1;27.93164;948.4136;;;;
2022/02/28 10:27:23;;;;;;;4.3;2.9;;;;;;;13.32;29.32422;948.3895;;;;
2022/02/28 10:29:49;;;;;;;3.3;2.4;;;;;;;13.84;28.49805;948.4242;;;;
2022/02/28 10:32:15;;;;;;;3.4;2.6;;;;;;;13.92;28.6748;948.4116;;;;
2022/02/28 10:35:59;;;;;;;3.5;2.4;;;;;;;13.25;28.78027;948.3798;;;;
2022/02/28 10:37:06;;;;;;;3;2.4;;;;;;;13.07;28.81445;948.389;;;;
2022/02/28 10:41:57;;;;;;;4.9;2.7;;;;;;;12.11;32.40625;948.3632;;;;
2022/02/28 10:44:22;;;;;;;3.8;2.9;;;;;;;12.58;32.02832;948.2145;;;;
2022/02/28 10:46:48;;;;;;;4.4;2.9;;;;;;;12.2;32.92871;948.2492;;;;
2022/02/28 10:49:15;;;;;;;5.4;3.3;;;;;;;12.79;31.41309;948.192;;;;
2022/02/28 10:51:38;;;;;;;4.3;3.3;;;;;;;12.73;32.24609;948.163;;;;
2022/02/28 10:54:05;;;;;;;3.6;3;;;;;;;12.58;32.52148;948.2058;;;;
2022/02/28 10:56:30;;;;;;;4.8;3.2;;;;;;;12.37;33.44629;948.1825;;;;
2022/02/28 10:58:55;;;;;;;6;3.6;;;;;;;12.25;33.7002;948.1627;;;;
2022/02/28 11:01:20;;;;;;;5.8;3.6;;;;;;;12.83;32.28809;948.0452;;;;
2022/02/28 11:03:49;;;;;;;4.7;3.3;;;;;;;12.6;31.82324;948.1437;;;;
2022/02/28 11:08:54;;;;;;;3.4;2.9;;;;;;;12.31;32.55859;948.111;;;;
2022/02/28 11:11:19;;;;;;;5.1;3.7;;;;;;;13.3;31.18457;948.1205;;;;
2022/02/28 11:13:48;;;;;;;4.2;3.2;;;;;;;13.38;31.14551;948.0305;;;;
2022/02/28 11:16:23;;;;;;;4.2;2.9;;;;;;;13.12;31.33301;948.0572;;;;
2022/02/28 11:18:53;;;;;;;4.3;2.7;;;;;;;13.57;30.88281;948.0758;;;;
2022/02/28 11:21:22;;;;;;;5.1;3.5;;;;;;;13.91;29.31836;948.0488;;;;
2022/02/28 11:23:47;;;;;;;4.5;3.2;;;;;;;14.33;29.30078;948.0382;;;;
2022/02/28 11:26:16;;;;;;;4.6;3.1;;;;;;;13.64;30.41602;947.9796;;;;
2022/02/28 11:28:41;;;;;;;3.8;2.9;;;;;;;14.6;28.54688;947.9742;;;;
2022/02/28 11:31:06;;;;;;;4.7;2.9;;;;;;;15.27;28.00195;947.907;;;;
2022/02/28 11:33:39;;;;;;;4.3;2.8;;;;;;;15.65;28.54688;947.883;;;;
2022/02/28 11:36:05;;;;;;;4.3;2.9;;;;;;;14.99;28.31836;947.8242;;;;
2022/02/28 11:38:35;;;;;;;4.7;2.9;;;;;;;14.55;29.69629;947.7926;;;;
2022/02/28 11:41:04;;;;;;;4.5;2.8;;;;;;;13.64;30.8877;947.7753;;;;
2022/02/28 11:43:29;;;;;;;4.1;3.2;;;;;;;13.33;31.78516;947.7889;;;;
2022/02/28 11:45:55;;;;;;;3.8;3.1;;;;;;;13.64;30.96777;947.7657;;;;
2022/02/28 11:48:20;;;;;;;4.2;3.3;;;;;;;14.71;30.14551;947.6749;;;;
2022/02/28 11:50:45;;;;;;;4.2;3.2;;;;;;;15.7;27.84473;947.6431;;;;
2022/02/28 11:53:10;;;;;;;5.2;3.1;;;;;;;16.17;26.87891;947.5516;;;;
2022/02/28 11:55:36;;;;;;;4.3;3.1;;;;;;;16.49;27.43262;947.5352;;;;
2022/02/28 11:58:07;;;;;;;4.9;3.1;;;;;;;16.1;27.23438;947.4959;;;;
2022/02/28 12:00:26;;;;;;;3.9;3;;;;;;;16.08;26.94336;947.4211;;;;
2022/02/28 12:02:51;;;;;;;5.2;3.3;;;;;;;17.03;26.37598;947.4305;;;;
2022/02/28 12:05:17;;;;;;;4;3.1;;;;;;;16.69;27.39844;947.3655;;;;
2022/02/28 12:07:42;;;;;;;3.4;3;;;;;;;16.84;26.2373;947.3851;;;;
2022/02/28 12:10:16;;;;;;;3.7;3.3;;;;;;;16.38;27.23926;947.3795;;;;
2022/02/28 12:12:44;;;;;;;3.5;3.2;;;;;;;17.87;25.87012;947.4106;;;;
2022/02/28 12:15:22;;;;;;;5.5;3.4;;;;;;;20.09;22.89551;947.3427;;;;
2022/02/28 12:17:47;;;;;;;5.6;3.2;;;;;;;20.62;22.46777;947.4142;;;;
2022/02/28 12:20:21;;;;;;;4.3;3.2;;;;;;;20.34;21.70605;947.3753;;;;
2022/02/28 12:22:47;;;;;;;4.7;3;;;;;;;20.95;21.53711;947.3098;;;;
2022/02/28 12:25:21;;;;;;;5.3;2.7;;;;;;;20.32;22.5459;947.3108;;;;
2022/02/28 12:27:48;;;;;;;2.9;2.6;;;;;;;19.62;23.07031;947.2975;;;;
2022/02/28 12:30:13;;;;;;;3.1;2.4;;;;;;;18.89;23.95117;947.2763;;;;
2022/02/28 12:32:39;;;;;;;4.8;2.7;;;;;;;18.09;25.06934;947.293;;;;
2022/02/28 12:35:11;;;;;;;4.1;3;;;;;;;19.16;23.15039;947.2598;;;;
2022/02/28 12:37:39;;;;;;;5.1;3.1;;;;;;;18.25;25.4502;947.228;;;;
2022/02/28 12:40:04;;;;;;;4;2.8;;;;;;;20.44;22.55176;947.1747;;;;
2022/02/28 12:42:33;;;;;;;3.7;2.8;;;;;;;19;23.49121;947.13;;;;
2022/02/28 12:44:58;;;;;;;4.8;2.8;;;;;;;19.89;22.46582;947.0748;;;;
2022/02/28 12:47:27;;;;;;;4.9;3.2;;;;;;;21.08;21.53223;947.0756;;;;
2022/02/28 12:49:52;;;;;;;3.6;2.6;;;;;;;22.66;19.9541;946.9802;;;;
2022/02/28 12:52:22;;;;;;;3.5;2.8;;;;;;;19.98;22.62207;947.0478;;;;
2022/02/28 12:58:04;;;;;;;3.6;2.8;;;;;;;19.36;23.34766;947.0659;;;;
2022/02/28 13:00:29;;;;;;;4.5;3.3;;;;;;;19.77;22.7627;947.0178;;;;
2022/02/28 13:02:55;;;;;;;4.5;3.1;;;;;;;20.79;21.82227;946.9526;;;;
2022/02/28 13:05:23;;;;;;;3.6;2.9;;;;;;;20.26;22.64844;947.0252;;;;
2022/02/28 13:07:48;;;;;;;3.9;2.7;;;;;;;21.32;21.06445;946.8816;;;;
2022/02/28 13:10:19;;;;;;;5.1;2.9;;;;;;;21.63;20.46973;946.8836;;;;
2022/02/28 13:12:44;;;;;;;4.1;3;;;;;;;20.87;21.32324;946.908;;;;
2022/02/28 13:15:10;;;;;;;5;3;;;;;;;21.1;21.35742;946.8695;;;;
2022/02/28 13:17:39;;;;;;;4;3;;;;;;;18.98;23.43164;946.8203;;;;
2022/02/28 13:20:09;;;;;;;3.7;3;;;;;;;19.67;22.55859;946.8986;;;;
2022/02/28 13:22:40;;;;;;;4.2;3.2;;;;;;;19.32;22.78613;946.799;;;;
2022/02/28 13:25:08;;;;;;;3.9;3;;;;;;;18.65;23.72852;946.7107;;;;
2022/02/28 13:27:32;;;;;;;5.4;3.1;;;;;;;17.95;24.1084;946.7453;;;;
2022/02/28 13:30:03;;;;;;;5.1;3.1;;;;;;;18.5;24.05859;946.7161;;;;
2022/02/28 13:32:34;;;;;;;3.8;3;;;;;;;18.45;24.39258;946.6367;;;;
2022/02/28 13:34:59;;;;;;;5.7;2.9;;;;;;;18.7;22.34766;946.6465;;;;
2022/02/28 13:37:24;;;;;;;5.1;2.8;;;;;;;19.5;21.86328;946.5954;;;;
2022/02/28 13:39:55;;;;;;;3.5;2.7;;;;;;;18.71;22.46387;946.6166;;;;
2022/02/28 13:42:22;;;;;;;5.4;2.9;;;;;;;17.9;23.24707;946.5417;;;;
2022/02/28 13:44:44;;;;;;;5.1;3.3;;;;;;;17.43;25.01953;946.5173;;;;
2022/02/28 13:47:13;;;;;;;4.6;2.9;;;;;;;18.19;24.56348;946.4258;;;;
2022/02/28 13:49:38;;;;;;;4.1;3.2;;;;;;;17.6;23.93848;946.4255;;;;
2022/02/28 13:52:03;;;;;;;3.6;2.9;;;;;;;16.87;24.0498;946.4406;;;;
2022/02/28 13:54:29;;;;;;;4;2.3;;;;;;;17.59;22.80078;946.4305;;;;
2022/02/28 13:56:54;;;;;;;2.9;2.5;;;;;;;16.65;23.69043;946.4171;;;;
2022/02/28 13:59:20;;;;;;;3.3;2.6;;;;;;;16.55;23.80078;946.399;;;;
2022/02/28 14:14:27;;;;;;;4.5;3.1;;;;;;;14.98;26.23047;946.5712;;;;
2022/02/28 14:16:52;;;;;;;3.8;3.2;;;;;;;14.85;25.70313;946.6386;;;;
2022/02/28 14:19:18;;;;;;;4;3.3;;;;;;;14.73;25.1543;946.5719;;;;
2022/02/28 14:21:42;;;;;;;4.6;3.2;;;;;;;13.92;26.28125;946.5236;;;;
2022/02/28 14:24:08;;;;;;;4.1;3.2;;;;;;;13.71;27.40723;946.5692;;;;
2022/02/28 14:26:35;;;;;;;4.3;3.1;;;;;;;13.58;26.62891;946.5187;;;;
2022/02/28 14:29:00;;;;;;;5.2;3.2;;;;;;;14.08;26.04883;946.5463;;;;
2022/02/28 14:31:29;;;;;;;4.1;3.2;;;;;;;14.66;25.75;946.5466;;;;
2022/02/28 14:33:54;;;;;;;4.1;3.3;;;;;;;14.66;26.03809;946.5938;;;;
2022/02/28 14:36:24;;;;;;;4.7;3.4;;;;;;;12.84;27.36426;946.6002;;;;
2022/02/28 14:38:48;;;;;;;6.5;3.6;;;;;;;11.94;28.65918;946.5237;;;;
2022/02/28 14:41:14;;;;;;;4.7;3.3;;;;;;;12.96;27.31445;946.5586;;;;
2022/02/28 14:43:40;;;;;;;5.5;3.4;;;;;;;13.05;27.15918;946.5009;;;;
2022/02/28 14:46:06;;;;;;;4.6;3.4;;;;;;;11.78;28.99219;946.6058;;;;
2022/02/28 14:48:32;;;;;;;3.6;3.2;;;;;;;12.23;28.05957;946.5932;;;;
2022/02/28 14:50:57;;;;;;;4.5;3.8;;;;;;;11.41;30.30566;946.6962;;;;
2022/02/28 14:53:24;;;;;;;6.1;3.5;;;;;;;11.7;29.26172;946.6658;;;;
2022/02/28 14:55:49;;;;;;;4.6;3.3;;;;;;;11.24;28.45313;946.6595;;;;
2022/02/28 14:58:16;;;;;;;6.9;3.3;;;;;;;12.14;27.66406;946.5914;;;;